Time;durP1;ratioP1;P1;durP2;ratioP2;P2;SDS_P1;SDS_P2;PMS_P1;PMS_P2;Temp;Humidity;BMP_temperature;BMP_pressure;BME280_temperature;BME280_humidity;BME280_pressure;Samples;Min_cycle;Max_cycle;Signal;HPM_P1;HPM_P2
2022/08/09 00:01:21;;;;;;;3.20;1.75;;;21.70;34.10;;;24.35;27.36;98178.66;5104141;28;20253;-45
2022/08/09 00:03:50;;;;;;;2.72;1.70;;;21.70;34.20;;;24.29;27.48;98166.00;5106744;28;20085;-44
2022/08/09 00:06:38;;;;;;;4.10;2.35;;;21.70;34.30;;;24.26;27.30;98179.22;5107006;28;20361;-45
2022/08/09 00:09:12;;;;;;;2.78;2.50;;;21.60;34.40;;;24.22;27.58;98170.72;5106209;28;20040;-47
2022/08/09 00:11:41;;;;;;;3.38;1.95;;;21.50;34.70;;;24.17;27.72;98168.72;5106304;28;20058;-45
2022/08/09 00:14:29;;;;;;;1.92;1.70;;;21.50;34.80;;;24.16;27.63;98163.50;5107247;28;20337;-47
2022/08/09 00:17:05;;;;;;;2.83;1.85;;;21.50;34.90;;;24.12;27.67;98160.44;5104099;28;20047;-45
2022/08/09 00:19:33;;;;;;;3.60;1.83;;;21.40;34.90;;;24.03;27.84;98170.00;5107130;28;20050;-44
2022/08/09 00:22:03;;;;;;;2.78;1.70;;;21.40;35.10;;;24.01;28.12;98168.59;5105505;28;20062;-43
2022/08/09 00:24:31;;;;;;;2.63;1.70;;;21.30;35.30;;;23.98;28.25;98170.72;5106654;28;20288;-48
2022/08/09 00:27:01;;;;;;;2.38;1.75;;;21.30;35.70;;;23.95;28.47;98164.91;5105909;28;20358;-44
2022/08/09 00:29:29;;;;;;;1.92;1.77;;;21.30;35.60;;;23.92;28.38;98162.66;5105792;28;20051;-46
2022/08/09 00:32:16;;;;;;;1.92;1.60;;;21.20;35.80;;;23.90;28.47;98165.59;5106577;28;20055;-51
2022/08/09 00:35:02;;;;;;;2.03;1.60;;;21.20;36.00;;;23.88;28.27;98161.47;5106334;28;20043;-46
2022/08/09 00:37:30;;;;;;;3.92;1.77;;;21.10;36.10;;;23.83;28.31;98162.19;5105619;28;20341;-44
2022/08/09 00:39:59;;;;;;;3.25;2.10;;;21.10;36.10;;;23.76;28.85;98167.66;5105126;28;20044;-46
2022/08/09 00:42:43;;;;;;;3.00;1.88;;;21.00;36.20;;;23.76;28.70;98161.41;5109954;28;20055;-48
2022/08/09 00:45:31;;;;;;;2.03;1.55;;;21.00;36.30;;;23.73;28.94;98162.72;5110267;28;20169;-46
2022/08/09 00:48:03;;;;;;;3.17;1.70;;;21.00;36.50;;;23.69;29.28;98163.41;5109593;28;20051;-44
2022/08/09 00:50:32;;;;;;;4.30;1.83;;;21.00;36.70;;;23.66;28.95;98164.72;5109159;28;20516;-44
2022/08/09 00:53:06;;;;;;;2.70;1.80;;;20.90;36.80;;;23.61;29.23;98163.75;5109784;28;20045;-45
2022/08/09 00:55:39;;;;;;;2.35;1.75;;;20.90;37.00;;;23.54;29.27;98167.41;5109217;28;20051;-44
2022/08/09 00:58:30;;;;;;;1.88;1.60;;;20.80;36.90;;;23.53;29.31;98164.91;5110433;28;20049;-48
2022/08/09 01:00:59;;;;;;;2.03;1.90;;;20.80;37.30;;;23.48;29.36;98162.06;5107287;28;20063;-45
2022/08/09 01:03:44;;;;;;;2.58;1.42;;;20.70;37.30;;;23.48;29.36;98162.06;5108082;28;20066;-46
2022/08/09 01:06:53;;;;;;;2.70;1.63;;;20.70;38.30;;;23.47;29.19;98168.56;5107483;28;20401;-47
2022/08/09 01:09:57;;;;;;;2.55;2.00;;;20.70;38.20;;;23.43;29.20;98161.94;5108170;28;20056;-44
2022/08/09 01:12:37;;;;;;;2.38;1.90;;;20.70;38.30;;;23.38;29.54;98162.63;5093437;28;20057;-46
2022/08/09 01:15:08;;;;;;;2.95;2.40;;;20.60;38.00;;;23.31;29.63;98159.19;5109306;28;20234;-46
2022/08/09 01:18:01;;;;;;;3.17;2.30;;;20.50;37.90;;;23.30;29.70;98166.50;5110057;28;20060;-48
2022/08/09 01:21:16;;;;;;;3.75;2.33;;;20.50;38.90;;;23.29;29.36;98158.59;5107011;28;20056;-48
2022/08/09 01:24:13;;;;;;;5.32;1.63;;;20.50;38.20;;;23.25;29.38;98165.53;5109133;28;20346;-47
2022/08/09 01:27:10;;;;;;;2.63;1.60;;;20.40;38.30;;;23.15;29.51;98168.81;5107566;28;20050;-45
2022/08/09 01:30:01;;;;;;;2.92;2.47;;;20.40;38.30;;;23.07;29.72;98172.66;5109522;27;20055;-45
2022/08/09 01:32:44;;;;;;;4.75;2.10;;;20.20;39.10;;;23.02;29.58;98177.91;5107601;28;20044;-45
2022/08/09 01:35:46;;;;;;;2.97;2.10;;;20.20;38.50;;;22.96;29.87;98167.97;5107497;28;20039;-47
2022/08/09 01:38:24;;;;;;;2.85;2.15;;;20.20;38.10;;;22.95;30.26;98169.88;5101579;27;20058;-45
2022/08/09 01:41:02;;;;;;;2.40;2.08;;;20.20;38.50;;;22.93;30.13;98177.38;5107340;28;20065;-49
2022/08/09 01:43:36;;;;;;;4.05;2.33;;;20.20;38.60;;;22.88;30.38;98171.81;5109511;28;20051;-48
2022/08/09 01:46:32;;;;;;;3.53;2.33;;;20.20;38.30;;;22.88;29.92;98171.81;5105913;28;20047;-46
2022/08/09 01:49:13;;;;;;;5.53;1.88;;;20.10;39.00;;;22.85;30.27;98169.56;5109088;27;20061;-45
2022/08/09 01:51:49;;;;;;;2.20;2.00;;;20.10;39.30;;;22.81;30.72;98173.78;5108114;28;20051;-43
2022/08/09 01:54:30;;;;;;;2.30;1.98;;;20.10;39.10;;;22.79;30.69;98175.91;5107788;28;20242;-45
2022/08/09 01:57:18;;;;;;;2.20;2.00;;;20.10;39.20;;;22.77;30.63;98189.69;5106959;28;20234;-46
2022/08/09 01:59:51;;;;;;;4.53;2.83;;;20.10;39.50;;;22.76;30.89;98185.34;5107723;28;20050;-49
2022/08/09 02:02:26;;;;;;;4.47;1.83;;;20.10;39.60;;;22.75;30.91;98186.38;5108698;28;20051;-48
2022/08/09 02:05:06;;;;;;;3.50;1.90;;;20.00;40.20;;;22.74;31.00;98194.72;5109181;28;20047;-47
2022/08/09 02:07:57;;;;;;;3.88;1.75;;;20.00;40.20;;;22.70;30.93;98190.81;5105817;28;20338;-46
2022/08/09 02:10:49;;;;;;;2.92;1.80;;;19.90;40.40;;;22.60;31.00;98183.19;5107752;28;20439;-47
2022/08/09 02:13:22;;;;;;;2.75;1.80;;;19.80;40.20;;;22.57;31.52;98189.09;5106654;28;20051;-45
2022/08/09 02:16:06;;;;;;;2.33;2.00;;;19.70;40.40;;;22.51;31.21;98190.00;5108436;28;20066;-44
2022/08/09 02:18:37;;;;;;;2.92;1.80;;;19.70;40.30;;;22.49;31.23;98192.94;5106134;28;20573;-44
2022/08/09 02:21:15;;;;;;;2.63;1.65;;;19.70;40.20;;;22.47;31.61;98196.91;5107875;28;20057;-45
2022/08/09 02:23:54;;;;;;;2.83;1.75;;;19.70;40.40;;;22.47;31.75;98200.47;5091952;28;20254;-47
2022/08/09 02:26:27;;;;;;;2.40;1.92;;;19.70;40.90;;;22.46;31.51;98198.78;5106293;28;20047;-43
2022/08/09 02:29:01;;;;;;;2.30;1.92;;;19.70;40.80;;;22.41;31.59;98204.91;5105895;28;20055;-49
2022/08/09 02:31:35;;;;;;;3.95;2.03;;;19.70;41.00;;;22.36;31.78;98196.59;5107486;28;20334;-43
2022/08/09 02:34:13;;;;;;;4.07;2.10;;;19.60;41.00;;;22.41;31.71;98204.06;5107173;28;20047;-50
2022/08/09 02:37:06;;;;;;;3.78;2.40;;;19.60;41.80;;;22.35;31.76;98199.53;5107666;28;20055;-49
2022/08/09 02:39:46;;;;;;;3.63;2.00;;;19.60;41.30;;;22.29;31.85;98206.69;5107442;28;20349;-46
2022/08/09 02:42:30;;;;;;;2.90;2.10;;;19.50;41.50;;;22.28;31.71;98201.50;5108357;28;20051;-45
2022/08/09 02:45:12;;;;;;;3.15;1.95;;;19.40;41.60;;;22.21;31.72;98194.19;5105614;28;20070;-43
2022/08/09 02:47:44;;;;;;;3.53;1.75;;;19.40;41.70;;;22.16;32.06;98202.19;5106171;28;20040;-45
2022/08/09 02:50:40;;;;;;;2.53;1.90;;;19.30;41.60;;;22.13;31.81;98191.78;5107420;28;20345;-44
2022/08/09 02:53:32;;;;;;;3.35;2.03;;;19.30;41.80;;;22.10;32.42;98197.66;5106418;28;20253;-44
2022/08/09 02:56:04;;;;;;;2.97;2.20;;;19.30;42.10;;;22.06;32.29;98199.13;5107919;28;20048;-46
2022/08/09 02:58:34;;;;;;;3.28;2.17;;;19.20;42.00;;;21.98;32.37;98200.25;5106016;28;20069;-45
2022/08/09 03:01:08;;;;;;;2.22;1.90;;;19.20;42.00;;;21.97;32.71;98195.06;5105849;28;20218;-45
2022/08/09 03:03:39;;;;;;;3.17;2.22;;;19.20;42.60;;;21.91;32.45;98191.34;5106571;28;20058;-45
2022/08/09 03:06:29;;;;;;;3.75;1.98;;;19.10;42.00;;;21.90;32.40;98186.13;5105889;28;20262;-47
2022/08/09 03:08:58;;;;;;;3.45;1.73;;;19.10;42.40;;;21.89;32.75;98198.03;5105279;28;20241;-44
2022/08/09 03:11:27;;;;;;;2.40;2.05;;;19.10;42.40;;;21.82;32.92;98190.78;5105993;28;20048;-45
2022/08/09 03:14:19;;;;;;;4.03;2.45;;;19.10;42.70;;;21.81;33.25;98191.03;5105849;28;20047;-45
2022/08/09 03:16:56;;;;;;;4.38;2.15;;;19.00;42.80;;;21.80;32.82;98195.59;5104493;28;20059;-44
2022/08/09 03:19:27;;;;;;;3.05;1.98;;;19.00;42.90;;;21.76;33.24;98202.50;5106380;28;20046;-47
2022/08/09 03:22:17;;;;;;;3.63;2.03;;;18.90;42.60;;;21.76;32.49;98201.69;5105306;28;20055;-45
2022/08/09 03:25:07;;;;;;;3.10;1.95;;;18.90;42.70;;;21.68;33.23;98199.25;5105549;28;20050;-45
2022/08/09 03:27:57;;;;;;;3.17;1.95;;;18.80;43.40;;;21.66;33.09;98199.44;5106081;28;20047;-46
2022/08/09 03:30:28;;;;;;;2.25;1.92;;;18.80;43.40;;;21.63;33.30;98200.72;5105003;28;20057;-43
2022/08/09 03:33:07;;;;;;;2.55;2.08;;;18.70;43.40;;;21.61;33.13;98199.28;5106353;28;20065;-44
2022/08/09 03:35:49;;;;;;;5.43;2.22;;;18.70;43.60;;;21.57;33.30;98192.63;5104363;28;20058;-44
2022/08/09 03:38:41;;;;;;;1.92;1.75;;;18.70;43.80;;;21.55;33.19;98202.84;5105375;28;20046;-45
2022/08/09 03:41:13;;;;;;;4.13;2.45;;;18.70;44.20;;;21.48;33.56;98202.06;5107129;28;20338;-46
2022/08/09 03:43:47;;;;;;;3.28;1.92;;;18.60;44.00;;;21.40;33.71;98197.69;5107393;28;20112;-45
2022/08/09 03:46:35;;;;;;;4.38;2.10;;;18.60;44.00;;;21.40;33.89;98203.97;5105799;28;20050;-43
2022/08/09 03:49:04;;;;;;;2.35;2.00;;;18.60;43.90;;;21.39;33.85;98202.28;5106791;28;20412;-46
2022/08/09 03:51:41;;;;;;;2.67;2.10;;;18.60;43.80;;;21.38;33.81;98197.09;5106268;28;20051;-47
2022/08/09 03:54:34;;;;;;;3.58;2.30;;;18.60;43.90;;;21.36;33.55;98199.19;5105317;28;20276;-44
2022/08/09 03:57:09;;;;;;;4.18;2.40;;;18.60;44.90;;;21.30;34.00;98208.19;5106172;28;20109;-46
2022/08/09 03:59:49;;;;;;;3.53;2.10;;;18.50;44.70;;;21.29;34.16;98204.66;5107691;28;20051;-45
2022/08/09 04:02:27;;;;;;;3.35;2.38;;;18.50;44.60;;;21.25;34.33;98200.72;5106369;28;20055;-44
2022/08/09 04:04:58;;;;;;;;;;;18.40;45.00;;;21.43;33.37;98202.69;5107356;28;20040;-45
2022/08/09 04:07:29;;;;;;;3.15;1.90;;;18.40;46.20;;;21.27;33.96;98205.91;5107367;28;20279;-45
2022/08/09 04:10:17;;;;;;;5.68;2.58;;;18.30;45.10;;;21.21;33.98;98207.63;5108076;28;20040;-46
2022/08/09 04:12:52;;;;;;;3.53;2.28;;;18.40;44.90;;;21.16;34.20;98210.94;5106918;28;20113;-46
2022/08/09 04:15:22;;;;;;;3.50;2.40;;;18.30;45.60;;;21.13;34.47;98211.41;5106821;28;20059;-44
2022/08/09 04:18:11;;;;;;;3.53;2.40;;;18.20;45.30;;;21.10;34.47;98217.22;5110748;28;20256;-43
2022/08/09 04:20:46;;;;;;;4.80;2.35;;;18.20;45.50;;;21.09;34.48;98217.44;5108507;28;20168;-46
2022/08/09 04:23:15;;;;;;;5.43;2.70;;;18.30;45.30;;;21.11;34.78;98221.63;5109911;28;20043;-43
2022/08/09 04:25:45;;;;;;;6.38;2.60;;;18.30;45.10;;;21.15;34.53;98219.28;5110883;28;20365;-46
2022/08/09 04:28:21;;;;;;;3.90;2.53;;;18.50;45.70;;;21.15;34.84;98228.25;5110229;28;20040;-47
2022/08/09 04:31:06;;;;;;;4.95;2.22;;;18.50;45.00;;;21.21;34.68;98235.50;5110477;28;20047;-45
2022/08/09 04:33:38;;;;;;;5.05;2.20;;;18.50;45.20;;;21.21;34.44;98237.41;5112015;28;20046;-49
2022/08/09 04:36:23;;;;;;;6.25;2.75;;;18.50;45.00;;;21.26;34.48;98237.56;5109919;28;20057;-45
2022/08/09 04:38:53;;;;;;;7.60;2.55;;;18.50;45.60;;;21.22;34.58;98244.47;5109547;28;20061;-45
2022/08/09 04:41:23;;;;;;;3.45;2.17;;;18.50;45.00;;;21.21;34.48;98243.63;5110361;28;20055;-44
2022/08/09 04:44:03;;;;;;;4.47;2.72;;;18.50;45.00;;;21.22;34.56;98245.28;5108217;28;20047;-44
2022/08/09 04:46:34;;;;;;;3.60;2.33;;;18.50;45.20;;;21.26;34.83;98250.28;5110477;28;20056;-45
2022/08/09 04:49:23;;;;;;;3.45;2.40;;;18.50;45.30;;;21.28;34.93;98265.25;5109663;28;20057;-45
2022/08/09 04:52:11;;;;;;;3.78;2.65;;;18.60;45.20;;;21.31;34.88;98262.13;5110817;28;20057;-44
2022/08/09 04:54:50;;;;;;;4.93;2.60;;;18.70;45.10;;;21.30;34.58;98260.44;5110618;27;20392;-47
2022/08/09 04:57:20;;;;;;;5.97;3.20;;;18.70;44.80;;;21.31;34.70;98261.31;5109892;28;20047;-45
2022/08/09 04:59:55;;;;;;;7.22;3.42;;;18.60;44.80;;;21.31;34.58;98264.00;5109338;28;20432;-45
2022/08/09 05:02:24;;;;;;;3.55;2.72;;;18.60;45.20;;;21.31;34.53;98267.53;5107573;28;20044;-46
2022/08/09 05:04:54;;;;;;;4.85;3.35;;;18.70;45.10;;;21.35;34.78;98278.78;5108438;28;20059;-45
2022/08/09 05:07:23;;;;;;;7.78;3.28;;;18.70;44.70;;;21.35;34.50;98270.66;5110386;28;20207;-44
2022/08/09 05:09:56;;;;;;;4.25;2.60;;;18.70;44.70;;;21.39;34.68;98272.72;5109731;28;20242;-47
2022/08/09 05:12:29;;;;;;;4.47;2.47;;;18.70;44.80;;;21.41;34.82;98273.31;5109382;28;20367;-42
2022/08/09 05:15:00;;;;;;;3.08;2.45;;;18.80;44.80;;;21.45;34.55;98273.75;5109677;28;20358;-47
2022/08/09 05:17:38;;;;;;;3.53;2.55;;;18.80;44.50;;;21.49;34.39;98268.75;5109381;28;20066;-44
2022/08/09 05:20:26;;;;;;;5.43;2.80;;;18.80;44.70;;;21.53;34.37;98270.78;5109578;28;20257;-44
2022/08/09 05:22:59;;;;;;;4.03;2.70;;;18.90;44.50;;;21.53;34.67;98270.78;5108815;28;20048;-45
2022/08/09 05:25:46;;;;;;;3.90;3.13;;;18.90;44.90;;;21.58;34.61;98281.81;5108956;28;20047;-49
2022/08/09 05:28:19;;;;;;;3.78;3.10;;;18.90;44.60;;;21.57;34.49;98276.63;5108471;28;20047;-44
2022/08/09 05:30:47;;;;;;;4.38;2.95;;;18.90;44.70;;;21.60;34.72;98279.72;5110474;28;20043;-45
2022/08/09 05:33:18;;;;;;;2.97;2.63;;;19.00;44.60;;;21.65;34.66;98289.06;5108715;28;20346;-46
2022/08/09 05:35:53;;;;;;;4.80;3.05;;;19.00;44.50;;;21.68;34.57;98278.63;5109944;28;20054;-44
2022/08/09 05:38:23;;;;;;;2.90;2.60;;;19.10;44.50;;;21.67;34.70;98281.56;5107877;28;20048;-49
2022/08/09 05:40:54;;;;;;;5.13;2.63;;;19.10;44.60;;;21.70;34.55;98287.38;5109088;28;20058;-46
2022/08/09 05:43:22;;;;;;;8.80;2.80;;;19.10;44.70;;;21.76;34.83;98288.38;5108720;28;20070;-46
2022/08/09 05:45:55;;;;;;;3.45;2.40;;;19.20;44.80;;;21.82;35.02;98288.34;5109258;28;20082;-49
2022/08/09 05:48:24;;;;;;;5.88;3.03;;;19.20;44.70;;;21.85;34.63;98278.09;5108172;28;20391;-46
2022/08/09 05:51:00;;;;;;;4.13;2.72;;;19.30;44.70;;;21.91;34.51;98283.50;5109011;28;20070;-47
2022/08/09 05:53:49;;;;;;;5.57;2.85;;;19.40;44.50;;;21.97;34.38;98281.81;5108713;28;20065;-44
2022/08/09 05:56:26;;;;;;;3.78;3.33;;;19.40;44.40;;;22.00;34.53;98292.19;5109203;28;20353;-46
2022/08/09 05:58:58;;;;;;;3.70;2.83;;;19.40;44.50;;;22.05;34.90;98303.22;5109499;28;20245;-44
2022/08/09 06:01:27;;;;;;;3.63;3.05;;;19.50;44.50;;;22.07;34.36;98301.13;5109068;28;20070;-45
2022/08/09 06:04:09;;;;;;;2.72;2.53;;;19.60;44.10;;;22.15;34.60;98302.72;5109271;28;20048;-46
2022/08/09 06:06:39;;;;;;;4.70;2.58;;;19.60;44.20;;;22.16;34.52;98302.50;5107408;28;20049;-48
2022/08/09 06:09:19;;;;;;;3.70;2.42;;;19.60;44.40;;;22.21;34.34;98307.28;5108335;28;20061;-47
2022/08/09 06:12:07;;;;;;;7.18;2.70;;;19.70;44.40;;;22.27;34.44;98311.84;5107960;28;20342;-47
2022/08/09 06:14:35;;;;;;;3.65;2.30;;;19.70;44.10;;;22.31;34.68;98317.66;5107387;28;20055;-46
2022/08/09 06:17:03;;;;;;;5.85;2.88;;;19.70;44.20;;;22.34;34.22;98319.94;5106827;28;20050;-49
2022/08/09 06:19:36;;;;;;;8.77;3.08;;;19.80;44.10;;;22.41;34.45;98328.84;5107878;28;20054;-46
2022/08/09 06:22:05;;;;;;;22.67;4.78;;;19.80;44.20;;;22.42;34.34;98323.19;5108034;28;20058;-48
2022/08/09 06:24:42;;;;;;;26.15;5.45;;;19.90;44.20;;;22.48;34.28;98323.38;5107619;28;20055;-46
2022/08/09 06:27:10;;;;;;;12.18;3.65;;;19.90;44.30;;;22.50;34.47;98324.81;5108084;28;20043;-48
2022/08/09 06:29:43;;;;;;;15.77;4.07;;;20.00;44.20;;;22.54;34.28;98328.72;5108112;27;20222;-48
2022/08/09 06:32:30;;;;;;;7.63;3.35;;;20.00;44.10;;;22.60;34.37;98329.72;5107217;28;20046;-47
2022/08/09 06:35:19;;;;;;;14.63;4.30;;;20.00;43.80;;;22.62;34.22;98330.34;5108074;28;20245;-46
2022/08/09 06:37:49;;;;;;;9.80;3.78;;;20.00;44.10;;;22.64;34.45;98333.66;5105877;28;20249;-48
2022/08/09 06:40:33;;;;;;;7.40;3.60;;;20.10;44.10;;;22.72;34.51;98338.81;5107834;28;20047;-48
2022/08/09 06:43:02;;;;;;;14.35;3.55;;;20.20;43.90;;;22.75;34.50;98337.53;5107256;28;20055;-46
2022/08/09 06:45:34;;;;;;;6.82;3.22;;;20.30;44.20;;;22.81;34.31;98333.94;5106599;28;20073;-45
2022/08/09 06:48:22;;;;;;;7.75;3.42;;;20.30;44.20;;;22.88;34.46;98336.59;5106432;28;20651;-45
2022/08/09 06:50:58;;;;;;;4.43;3.40;;;20.30;44.00;;;22.91;34.76;98336.94;5107166;28;20048;-45
2022/08/09 06:53:31;;;;;;;4.18;2.85;;;20.40;44.30;;;22.97;34.11;98336.06;5107283;28;20371;-47
2022/08/09 06:56:06;;;;;;;7.85;3.58;;;20.40;43.90;;;22.99;34.69;98342.13;5107525;28;20054;-45
2022/08/09 06:58:37;;;;;;;6.47;3.67;;;20.50;44.20;;;23.01;34.23;98333.72;5107360;28;20073;-50
2022/08/09 07:01:25;;;;;;;4.65;3.10;;;20.60;44.10;;;23.08;34.46;98339.13;5106383;28;20282;-50
2022/08/09 07:04:13;;;;;;;4.63;3.58;;;20.60;44.20;;;23.14;34.54;98340.94;5108800;28;20430;-50
2022/08/09 07:06:47;;;;;;;8.77;3.70;;;20.70;44.10;;;23.15;34.69;98348.88;5108299;28;20044;-48
2022/08/09 07:09:27;;;;;;;5.88;3.05;;;20.70;44.10;;;23.14;34.91;98347.19;5106945;28;20058;-49
2022/08/09 07:12:15;;;;;;;6.95;3.33;;;20.80;44.30;;;23.20;34.64;98350.91;5107471;28;20285;-47
2022/08/09 07:14:45;;;;;;;3.90;3.15;;;20.80;44.40;;;23.26;34.80;98344.56;5106642;28;20052;-48
2022/08/09 07:17:20;;;;;;;5.97;3.28;;;20.80;44.40;;;23.32;34.83;98351.81;5106912;28;20051;-49
2022/08/09 07:19:49;;;;;;;8.77;3.20;;;20.90;44.50;;;23.39;34.75;98349.03;5108007;28;20045;-46
2022/08/09 07:22:23;;;;;;;6.53;3.40;;;21.00;44.40;;;23.44;34.93;98357.31;5106926;28;20051;-47
2022/08/09 07:25:05;;;;;;;9.73;3.63;;;21.10;44.40;;;23.53;34.81;98355.94;5107684;28;20061;-46
2022/08/09 07:27:40;;;;;;;7.50;4.00;;;21.20;44.30;;;23.58;34.86;98358.81;5107119;28;20055;-49
2022/08/09 07:30:20;;;;;;;;;;;21.30;45.30;;;23.93;33.90;98363.63;5107744;28;20082;-49
2022/08/09 07:32:51;;;;;;;8.07;3.25;;;21.30;44.80;;;23.83;34.47;98367.97;5106499;28;19917;-48
2022/08/09 07:35:22;;;;;;;7.35;3.60;;;21.40;44.20;;;23.78;34.52;98368.63;5107137;28;20054;-47
2022/08/09 07:37:52;;;;;;;7.55;3.58;;;21.40;44.30;;;23.80;34.56;98365.69;5106216;28;20055;-49
2022/08/09 07:40:26;;;;;;;7.20;3.97;;;21.50;44.30;;;23.85;34.73;98366.66;5092422;28;20048;-46
2022/08/09 07:43:14;;;;;;;7.32;3.83;;;21.50;44.10;;;23.94;34.81;98368.03;5085684;28;20055;-44
2022/08/09 07:45:43;;;;;;;8.13;3.35;;;21.60;44.20;;;23.98;34.65;98366.50;5086861;28;20070;-45
2022/08/09 07:48:12;;;;;;;8.63;4.55;;;21.60;44.10;;;24.00;34.71;98360.84;5086711;28;20059;-47
2022/08/09 07:50:59;;;;;;;4.35;2.83;;;21.70;44.10;;;24.05;34.46;98369.09;5084139;28;20043;-50
2022/08/09 07:53:38;;;;;;;4.10;3.22;;;21.70;44.10;;;24.12;34.50;98369.84;5086903;28;20048;-46
2022/08/09 07:56:26;;;;;;;5.97;3.25;;;21.80;44.20;;;24.21;34.60;98367.63;5089059;28;20055;-47
2022/08/09 07:58:57;;;;;;;7.18;3.00;;;21.90;45.00;;;24.27;34.47;98368.59;5087183;28;20227;-44
2022/08/09 08:01:27;;;;;;;4.43;2.85;;;21.90;44.00;;;24.31;34.58;98369.78;5098065;28;20052;-45
2022/08/09 08:04:04;;;;;;;4.22;3.10;;;22.00;43.90;;;24.38;34.61;98371.34;5093603;28;20048;-49
2022/08/09 08:06:37;;;;;;;5.35;3.78;;;22.10;44.10;;;24.44;34.47;98374.19;5097450;28;20047;-44
2022/08/09 08:09:22;;;;;;;4.43;3.22;;;22.10;44.00;;;24.52;34.22;98373.88;5099916;28;20050;-48
2022/08/09 08:12:09;;;;;;;5.20;3.42;;;22.20;43.70;;;24.56;34.19;98381.38;5094684;28;20051;-47
2022/08/09 08:14:56;;;;;;;7.90;4.72;;;22.20;43.40;;;24.62;34.26;98378.75;5097280;28;20047;-45
2022/08/09 08:17:26;;;;;;;7.97;3.42;;;22.30;43.60;;;24.66;34.13;98375.34;5099877;28;20273;-48
2022/08/09 08:20:14;;;;;;;3.55;3.05;;;22.30;43.20;;;24.71;33.72;98380.91;5070179;28;20060;-46
2022/08/09 08:22:43;;;;;;;6.40;3.78;;;22.40;43.00;;;24.75;33.97;98373.91;5068493;28;20274;-47
2022/08/09 08:25:15;;;;;;;4.72;2.90;;;22.50;43.10;;;24.84;33.98;98382.59;5069735;28;20064;-48
2022/08/09 08:27:46;;;;;;;3.40;2.83;;;22.50;43.20;;;24.89;33.66;98380.00;5069371;28;20060;-45
2022/08/09 08:30:17;;;;;;;4.25;3.03;;;22.60;42.80;;;24.95;33.70;98381.75;5067329;28;20050;-44
2022/08/09 08:32:46;;;;;;;4.35;2.97;;;22.70;42.70;;;25.01;33.43;98379.13;5069713;28;20045;-48
2022/08/09 08:35:21;;;;;;;6.85;3.05;;;22.70;42.30;;;25.09;33.55;98381.53;5068681;28;20265;-48
2022/08/09 08:37:50;;;;;;;5.10;3.33;;;22.80;42.30;;;25.15;33.20;98375.13;5069838;28;20044;-49
2022/08/09 08:40:29;;;;;;;5.20;3.42;;;22.90;42.00;;;25.21;33.27;98382.34;5067578;28;20052;-45
2022/08/09 08:42:57;;;;;;;3.10;2.80;;;22.90;42.10;;;25.26;32.80;98377.06;5068336;28;20056;-47
2022/08/09 08:45:37;;;;;;;4.22;2.90;;;23.00;41.50;;;25.35;32.71;98382.94;5069270;28;20051;-44
2022/08/09 08:48:18;;;;;;;7.20;2.95;;;23.10;41.20;;;25.43;32.92;98382.56;5069552;28;20052;-48
2022/08/09 08:50:47;;;;;;;6.18;2.90;;;23.20;41.30;;;25.48;32.49;98374.53;5069821;28;20036;-47
2022/08/09 08:53:18;;;;;;;3.28;3.00;;;23.20;41.00;;;25.56;32.50;98377.94;5067878;28;20082;-48
2022/08/09 08:55:49;;;;;;;5.03;2.97;;;23.30;41.00;;;25.61;32.48;98380.75;5068561;28;20048;-47
2022/08/09 08:58:21;;;;;;;3.15;2.85;;;23.40;40.80;;;25.68;32.25;98385.00;5069197;28;20404;-46
2022/08/09 09:00:56;;;;;;;5.13;3.10;;;23.40;40.50;;;25.76;31.95;98383.00;5068902;28;20078;-47
2022/08/09 09:03:32;;;;;;;3.42;3.13;;;23.50;40.20;;;25.85;31.94;98381.53;5069384;28;20052;-44
2022/08/09 09:06:06;;;;;;;3.33;2.80;;;23.60;39.80;;;25.89;31.68;98388.16;5069507;28;20346;-46
2022/08/09 09:08:38;;;;;;;3.92;2.97;;;23.60;39.90;;;25.95;31.85;98389.13;5067826;28;20250;-47
2022/08/09 09:11:11;;;;;;;4.40;2.50;;;23.70;39.80;;;26.02;31.78;98396.09;5066268;28;20416;-48
2022/08/09 09:13:49;;;;;;;3.67;2.67;;;23.70;39.50;;;26.05;31.87;98381.97;5067477;28;20362;-45
2022/08/09 09:16:31;;;;;;;3.55;3.22;;;23.70;39.60;;;26.13;31.42;98388.94;5068435;28;20056;-46
2022/08/09 09:19:11;;;;;;;2.80;2.50;;;23.80;39.50;;;26.19;31.59;98379.78;5065385;28;20055;-47
2022/08/09 09:22:07;;;;;;;4.63;3.05;;;23.90;39.00;;;26.26;31.33;98379.63;5068061;28;20051;-46
2022/08/09 09:24:53;;;;;;;3.25;2.83;;;24.00;39.10;;;26.31;31.56;98375.09;5068915;28;20049;-47
2022/08/09 09:27:41;;;;;;;3.42;2.97;;;24.00;39.00;;;26.39;30.98;98379.31;5068386;28;20051;-49
2022/08/09 09:30:30;;;;;;;4.15;2.38;;;24.10;39.10;;;26.45;31.37;98377.50;5067702;28;20239;-45
2022/08/09 09:33:11;;;;;;;3.83;2.88;;;24.20;39.00;;;26.51;31.13;98373.78;5068526;28;20044;-47
2022/08/09 09:35:59;;;;;;;3.10;2.80;;;24.30;38.70;;;26.58;30.86;98368.16;5068242;28;20059;-45
2022/08/09 09:38:48;;;;;;;3.13;2.83;;;24.30;38.10;;;26.66;30.72;98370.53;5068081;28;20055;-47
2022/08/09 09:41:34;;;;;;;4.85;4.10;;;24.30;37.50;;;26.73;30.22;98371.16;5067727;28;20051;-48
2022/08/09 09:44:32;;;;;;;2.88;2.47;;;24.50;37.10;;;26.78;30.05;98363.06;5068862;28;20059;-45
2022/08/09 09:47:15;;;;;;;3.33;2.97;;;24.50;37.00;;;26.83;29.73;98365.88;5068717;28;20366;-47
2022/08/09 09:49:50;;;;;;;4.87;3.27;;;24.50;36.90;;;26.91;30.03;98367.38;5066474;28;20052;-49
2022/08/09 09:52:52;;;;;;;4.47;2.65;;;24.60;37.30;;;26.98;30.26;98362.53;5069210;28;20052;-48
2022/08/09 09:55:23;;;;;;;3.60;2.80;;;24.70;37.30;;;26.96;30.06;98363.88;5067825;28;20567;-45
2022/08/09 09:58:07;;;;;;;2.83;2.63;;;24.70;37.50;;;27.05;29.71;98365.13;5068242;28;20048;-47
2022/08/09 10:00:54;;;;;;;6.15;3.33;;;24.80;36.30;;;27.14;29.49;98363.59;5068913;28;20053;-44
2022/08/09 10:03:40;;;;;;;3.42;2.75;;;24.90;36.70;;;27.22;29.81;98363.19;5067841;28;20056;-44
2022/08/09 10:06:14;;;;;;;3.95;2.83;;;25.00;35.90;;;27.26;29.20;98360.81;5068109;28;20048;-46
2022/08/09 10:08:46;;;;;;;6.65;2.85;;;25.10;36.30;;;27.33;29.31;98355.97;5067781;28;20273;-49
2022/08/09 10:11:30;;;;;;;4.05;2.75;;;25.10;36.40;;;27.41;28.96;98357.44;5068568;28;20342;-45
2022/08/09 10:14:29;;;;;;;3.05;2.67;;;25.20;36.20;;;27.48;29.44;98355.34;5067416;28;20056;-46
2022/08/09 10:17:10;;;;;;;4.93;2.60;;;25.20;36.10;;;27.55;28.88;98347.78;5066194;28;20380;-48
2022/08/09 10:20:01;;;;;;;3.20;2.90;;;25.20;35.70;;;27.57;28.85;98339.31;5066873;28;20040;-47
2022/08/09 10:22:36;;;;;;;6.45;2.60;;;25.30;36.20;;;27.61;28.75;98343.22;5067561;28;20052;-49
2022/08/09 10:25:07;;;;;;;3.20;2.90;;;25.30;35.70;;;27.61;28.85;98335.81;5068722;28;20060;-45
2022/08/09 10:27:43;;;;;;;4.70;2.92;;;25.40;35.70;;;27.66;28.71;98333.13;5065859;28;20056;-47
2022/08/09 10:30:26;;;;;;;4.15;2.67;;;25.40;35.20;;;27.72;27.91;98328.56;5067649;28;20052;-45
2022/08/09 10:33:17;;;;;;;2.60;2.40;;;25.40;34.20;;;27.82;27.74;98325.09;5067668;28;20063;-45
2022/08/09 10:36:08;;;;;;;6.22;2.90;;;25.60;33.90;;;27.88;27.11;98332.34;5069767;28;20070;-48
2022/08/09 10:38:42;;;;;;;2.72;2.53;;;25.60;33.60;;;27.94;27.29;98331.31;5067259;28;20064;-46
2022/08/09 10:41:26;;;;;;;2.55;2.20;;;25.70;32.90;;;28.05;26.98;98330.34;5067303;28;20055;-45
2022/08/09 10:43:56;;;;;;;3.95;3.00;;;25.80;32.90;;;28.10;26.72;98318.59;5065725;28;20054;-46
2022/08/09 10:47:13;;;;;;;2.28;2.05;;;25.90;33.00;;;28.23;26.73;98329.13;5066678;28;20071;-47
2022/08/09 10:53:43;;;;;;;3.83;2.58;;;26.00;32.20;;;28.36;26.78;98319.66;5067291;28;20079;-45
2022/08/09 10:56:22;;;;;;;3.00;2.70;;;26.00;32.70;;;28.39;26.64;98323.78;5066758;28;20044;-44
2022/08/09 10:58:58;;;;;;;2.70;2.50;;;26.20;32.50;;;28.45;26.19;98315.34;5067096;28;20253;-44
2022/08/09 11:01:30;;;;;;;4.03;2.50;;;26.20;31.90;;;28.50;26.55;98321.94;5066570;28;20063;-47
2022/08/09 11:04:21;;;;;;;4.55;2.75;;;26.30;32.20;;;28.59;26.14;98323.16;5067378;28;20048;-48
2022/08/09 11:06:58;;;;;;;2.30;2.10;;;26.30;32.10;;;28.64;25.66;98323.22;5066657;28;20048;-47
2022/08/09 11:09:36;;;;;;;4.13;2.97;;;26.40;31.70;;;28.69;25.83;98330.63;5067702;28;20071;-46
2022/08/09 11:12:24;;;;;;;2.95;2.65;;;26.50;31.30;;;28.76;25.92;98328.50;5066054;28;20041;-47